Disclaimer

Please do not use the information listed here in-flight or in-navigation, as they are not provided to us by the airports but are provided by volunteers, so they might be outdated.

Search


Regions


Airport information page

Radio informations:
Tower (TWR) - 120.1 MHz

Airport informations:
Latitude: 49° 01' 46.00" N
Longitude: 017° 26' 23.00" E
Elevation: 581 feet - 177 meters
Operating hours: Remarks
Operating agency: Civil government, landing fees and diplomatic clearance may be required
Timezone: UTC+1(+2DT)
Fuel: Aviation Gasoline (AVGAS), octane unknown.

Jet fuel avaiable but type is unknown.

Runway information:
03C/21C - 6562 x 98 feet< - >2000 x 30 meters
03R/21L - 5544 x 197 feet< - >1690 x 60 meters
03L/21R - 4855 x 262 feet< - >1480 x 80 meters

Recent METARs:
LKKU 160600Z 03003KT 2500 MIFG FEW002 00/M00 Q1032
LKKU 160600Z 03003KT 2500 MIFG FEW002 00/M00 Q1032

Airport on the map: